Time;durP1;ratioP1;P1;durP2;ratioP2;P2;SDS_P1;SDS_P2;PMS_P1;PMS_P2;Temp;Humidity;BMP_temperature;BMP_pressure;BME280_temperature;BME280_humidity;BME280_pressure;Samples;Min_cycle;Max_cycle;Signal;HPM_P1;HPM_P2
2021/01/26 00:00:17;;;;;;;15.27;9.27;;;;;;;-0.36;100.00;95844.59;4985511;28;20046;-46
2021/01/26 00:02:44;;;;;;;8.05;5.22;;;;;;;-0.38;100.00;95851.66;4979442;28;20055;-48
2021/01/26 00:05:12;;;;;;;14.60;8.65;;;;;;;-0.34;100.00;95845.34;4981559;28;20049;-46
2021/01/26 00:07:39;;;;;;;11.13;6.38;;;;;;;-0.36;100.00;95849.78;4984362;28;20049;-46
2021/01/26 00:10:09;;;;;;;11.82;6.20;;;;;;;-0.42;100.00;95852.75;4983958;28;20050;-47
2021/01/26 00:12:36;;;;;;;9.43;5.10;;;;;;;-0.37;100.00;95849.91;4984320;28;20050;-47
2021/01/26 00:15:06;;;;;;;17.27;9.85;;;;;;;-0.39;100.00;95856.91;4982365;28;20115;-45
2021/01/26 00:17:35;;;;;;;18.05;11.43;;;;;;;-0.41;100.00;95858.75;4982761;28;20050;-47
2021/01/26 00:20:03;;;;;;;12.93;7.93;;;;;;;-0.41;100.00;95864.78;4977791;28;20547;-49
2021/01/26 00:22:30;;;;;;;11.40;6.05;;;;;;;-0.42;100.00;95859.69;4986162;28;20050;-47
2021/01/26 00:24:57;;;;;;;15.18;8.23;;;;;;;-0.40;100.00;95863.84;4976630;28;20046;-46
2021/01/26 00:27:24;;;;;;;15.77;8.93;;;;;;;-0.39;100.00;95862.91;4985611;28;20510;-47
2021/01/26 00:29:52;;;;;;;20.90;12.25;;;;;;;-0.45;100.00;95870.22;4980305;28;20046;-47
2021/01/26 00:32:18;;;;;;;22.90;14.10;;;;;;;-0.40;100.00;95863.03;4979705;28;20042;-46
2021/01/26 00:34:46;;;;;;;19.55;11.05;;;;;;;-0.44;100.00;95864.97;4986162;28;20057;-48
2021/01/26 00:37:14;;;;;;;21.95;12.35;;;;;;;-0.41;100.00;95869.97;4986240;28;20054;-45
2021/01/26 00:39:41;;;;;;;23.25;12.68;;;;;;;-0.38;100.00;95867.19;4986390;28;20109;-50
2021/01/26 00:42:08;;;;;;;13.35;6.85;;;;;;;-0.37;100.00;95871.44;4978594;28;20042;-47
2021/01/26 00:44:35;;;;;;;18.95;10.98;;;;;;;-0.42;100.00;95875.22;4985515;28;20101;-46
2021/01/26 00:47:02;;;;;;;20.92;11.65;;;;;;;-0.43;100.00;95877.00;4984004;28;20050;-50
2021/01/26 00:49:29;;;;;;;25.77;14.50;;;;;;;-0.41;100.00;95879.47;4977285;28;20055;-45
2021/01/26 00:51:58;;;;;;;27.05;15.40;;;;;;;-0.48;100.00;95879.03;4986438;28;20046;-47
2021/01/26 00:54:25;;;;;;;22.75;13.25;;;;;;;-0.53;100.00;95881.88;4987068;28;20198;-48
2021/01/26 00:56:52;;;;;;;23.73;14.15;;;;;;;-0.43;100.00;95889.94;4983336;28;20038;-50
2021/01/26 00:59:20;;;;;;;27.75;16.10;;;;;;;-0.44;100.00;95893.47;4968459;28;20136;-47
2021/01/26 01:01:54;;;;;;;23.75;13.50;;;;;;;-0.45;100.00;95898.72;4980116;28;20050;-47
2021/01/26 01:04:21;;;;;;;23.38;13.02;;;;;;;-0.43;100.00;95892.53;4982354;28;20553;-46
2021/01/26 01:06:48;;;;;;;26.10;15.07;;;;;;;-0.46;100.00;95895.28;4988921;28;20042;-45
2021/01/26 01:09:16;;;;;;;26.33;14.77;;;;;;;-0.49;100.00;95896.31;4982957;28;20596;-46
2021/01/26 01:11:43;;;;;;;26.23;15.07;;;;;;;-0.42;100.00;95899.38;4982819;28;20453;-48
2021/01/26 01:14:11;;;;;;;28.88;15.73;;;;;;;-0.39;100.00;95908.72;4977605;28;20042;-47
2021/01/26 01:16:38;;;;;;;20.92;11.85;;;;;;;-0.39;100.00;95912.13;4978668;28;20102;-46
2021/01/26 01:19:05;;;;;;;20.48;11.73;;;;;;;-0.43;100.00;95909.81;4980297;28;20038;-46
2021/01/26 01:21:33;;;;;;;21.38;11.63;;;;;;;-0.49;100.00;95911.84;4982335;28;20043;-48
2021/01/26 01:24:01;;;;;;;21.20;11.52;;;;;;;-0.46;100.00;95917.78;4966519;28;20062;-45
2021/01/26 01:26:28;;;;;;;23.63;12.40;;;;;;;-0.43;100.00;95922.78;4975490;28;20117;-47
2021/01/26 01:28:55;;;;;;;26.17;16.08;;;;;;;-0.42;100.00;95927.03;4986335;28;20069;-47
2021/01/26 01:31:23;;;;;;;25.77;13.27;;;;;;;-0.47;100.00;95923.88;4971337;28;20078;-44
2021/01/26 01:33:53;;;;;;;27.30;16.13;;;;;;;-0.39;100.00;95924.25;4984095;28;20057;-48
2021/01/26 01:36:20;;;;;;;29.27;16.98;;;;;;;-0.39;100.00;95932.84;4984574;28;20038;-48
2021/01/26 01:38:47;;;;;;;25.05;14.55;;;;;;;-0.32;100.00;95928.97;4979537;28;20046;-50
2021/01/26 01:41:15;;;;;;;9.95;5.63;;;;;;;-0.35;100.00;95938.69;4977728;28;20528;-47
2021/01/26 01:43:43;;;;;;;24.70;13.82;;;;;;;-0.35;100.00;95936.91;4975485;28;20046;-47
2021/01/26 01:46:14;;;;;;;21.30;13.52;;;;;;;-0.38;100.00;95934.53;4975122;28;20402;-51
2021/01/26 01:48:43;;;;;;;7.45;4.50;;;;;;;-0.31;100.00;95935.84;4978189;28;20053;-47
2021/01/26 01:51:12;;;;;;;12.20;6.93;;;;;;;-0.32;100.00;95934.16;4970524;28;20043;-49
2021/01/26 01:53:40;;;;;;;17.92;10.68;;;;;;;-0.30;100.00;95944.44;4974128;28;20051;-47
2021/01/26 01:56:10;;;;;;;15.93;9.48;;;;;;;-0.32;100.00;95944.53;4983296;28;20050;-46
2021/01/26 01:58:40;;;;;;;18.08;10.38;;;;;;;-0.27;100.00;95944.25;4983396;28;20054;-51
2021/01/26 02:01:10;;;;;;;18.50;11.13;;;;;;;-0.21;100.00;95956.00;4984078;28;20105;-47
2021/01/26 02:03:41;;;;;;;17.90;10.32;;;;;;;-0.27;100.00;95952.03;4981053;28;20130;-47
2021/01/26 02:06:09;;;;;;;17.33;10.02;;;;;;;-0.30;100.00;95960.81;4980901;28;20053;-48
2021/01/26 02:08:40;;;;;;;24.73;13.63;;;;;;;-0.31;100.00;95959.16;4978075;28;20054;-47
2021/01/26 02:11:08;;;;;;;18.73;9.77;;;;;;;-0.38;100.00;95962.19;4977515;28;20046;-46
2021/01/26 02:13:35;;;;;;;16.35;9.77;;;;;;;-0.44;100.00;95960.78;4973743;28;20132;-50
2021/01/26 02:16:03;;;;;;;23.48;13.88;;;;;;;-0.58;100.00;95973.72;4977716;28;20130;-47
2021/01/26 02:18:40;;;;;;;17.25;9.45;;;;;;;-0.60;100.00;95975.56;4976841;28;20053;-47
2021/01/26 02:21:45;;;;;;;21.05;10.65;;;;;;;-0.58;100.00;95974.56;4975483;28;20108;-47
2021/01/26 02:24:57;;;;;;;13.13;7.82;;;;;;;-0.56;100.00;95979.63;4980458;28;20051;-47
2021/01/26 02:28:01;;;;;;;13.98;7.20;;;;;;;-0.56;100.00;95979.63;4947641;28;20232;-47
2021/01/26 02:30:41;;;;;;;18.02;10.13;;;;;;;-0.60;100.00;95975.56;4980214;28;20067;-48
2021/01/26 02:33:56;;;;;;;19.05;10.93;;;;;;;-0.63;100.00;95986.09;4979123;28;20074;-48
2021/01/26 02:36:58;;;;;;;15.73;8.55;;;;;;;-0.67;100.00;95989.78;4986564;28;20046;-48
2021/01/26 02:39:38;;;;;;;10.98;5.68;;;;;;;-0.70;100.00;95995.13;4975950;28;20055;-47
2021/01/26 02:42:19;;;;;;;18.17;9.38;;;;;;;-0.72;100.00;96001.22;4979290;28;20042;-48
2021/01/26 02:44:50;;;;;;;;;;;;;;;-0.81;100.00;95999.16;4969620;28;20500;-48
2021/01/26 02:47:21;;;;;;;17.33;9.38;;;;;;;-0.79;100.00;96009.41;4984735;28;19921;-49
2021/01/26 02:49:50;;;;;;;11.60;6.45;;;;;;;-0.82;100.00;96013.03;4969428;28;20043;-47
2021/01/26 02:52:26;;;;;;;17.73;9.65;;;;;;;-0.87;100.00;96017.63;4982937;28;20047;-47
2021/01/26 02:55:02;;;;;;;14.75;8.23;;;;;;;-0.79;100.00;96014.59;4986919;28;20068;-52
2021/01/26 02:57:33;;;;;;;16.35;8.50;;;;;;;-0.86;100.00;96019.31;4978351;28;20390;-49
2021/01/26 03:00:06;;;;;;;15.65;9.85;;;;;;;-0.86;100.00;96015.84;4980822;28;20050;-47
2021/01/26 03:02:37;;;;;;;17.02;10.00;;;;;;;-0.89;100.00;96024.66;4987217;28;20426;-46
2021/01/26 03:05:08;;;;;;;18.67;8.98;;;;;;;-0.98;100.00;96025.97;4976416;28;20517;-47
2021/01/26 03:07:39;;;;;;;18.60;9.98;;;;;;;-0.93;100.00;96030.06;4981534;28;20477;-49
2021/01/26 03:10:12;;;;;;;19.85;10.98;;;;;;;-1.05;100.00;96034.16;4977717;28;20046;-51
2021/01/26 03:12:42;;;;;;;19.77;10.45;;;;;;;-0.98;100.00;96030.31;4982656;28;20457;-47
2021/01/26 03:15:14;;;;;;;21.77;12.18;;;;;;;-1.03;100.00;96034.94;4984432;28;20074;-47
2021/01/26 03:17:44;;;;;;;24.40;12.95;;;;;;;-1.04;100.00;96052.19;4978920;28;20042;-52
2021/01/26 03:20:16;;;;;;;20.23;10.73;;;;;;;-0.87;100.00;96045.25;4983635;28;20039;-50
2021/01/26 03:22:46;;;;;;;26.38;15.15;;;;;;;-0.84;100.00;96055.44;4975606;28;20043;-47
2021/01/26 03:25:15;;;;;;;18.58;10.10;;;;;;;-0.79;100.00;96056.00;4979356;28;20049;-51
2021/01/26 03:27:43;;;;;;;23.85;13.95;;;;;;;-0.82;100.00;96066.56;4982856;28;20042;-47
2021/01/26 03:30:17;;;;;;;23.02;13.20;;;;;;;-0.75;100.00;96060.13;4986797;28;20070;-45
2021/01/26 03:32:51;;;;;;;23.40;13.07;;;;;;;-0.69;100.00;96066.69;4982035;28;20585;-48
2021/01/26 03:35:18;;;;;;;22.83;12.57;;;;;;;-0.67;100.00;96059.69;4985909;28;20051;-49
2021/01/26 03:37:50;;;;;;;26.70;11.65;;;;;;;-0.66;100.00;96064.75;4989125;28;20105;-48
2021/01/26 03:40:18;;;;;;;19.83;10.98;;;;;;;-0.61;100.00;96067.13;4981372;28;20065;-47
2021/01/26 03:42:45;;;;;;;8.95;4.72;;;;;;;-0.61;100.00;96072.28;4985986;28;20050;-51
2021/01/26 03:45:13;;;;;;;22.55;12.73;;;;;;;-0.68;100.00;96079.56;4989769;28;20529;-50
2021/01/26 03:47:48;;;;;;;16.20;8.55;;;;;;;-0.59;100.00;96080.78;4985556;28;20039;-49
2021/01/26 03:50:30;;;;;;;13.95;8.57;;;;;;;-0.59;100.00;96073.84;4992379;28;20058;-46
2021/01/26 03:53:14;;;;;;;14.38;8.00;;;;;;;-0.59;100.00;96088.56;4981976;28;20042;-48
2021/01/26 03:55:45;;;;;;;14.07;9.63;;;;;;;-0.57;100.00;96086.72;4982666;28;20409;-47
2021/01/26 03:58:22;;;;;;;13.15;6.45;;;;;;;-0.60;100.00;96079.97;4991239;28;20397;-47
2021/01/26 04:00:53;;;;;;;9.98;5.28;;;;;;;-0.65;100.00;96088.91;4982370;28;20073;-47
2021/01/26 04:03:39;;;;;;;13.85;8.90;;;;;;;-0.67;100.00;96095.94;4979048;28;20552;-47
2021/01/26 04:06:11;;;;;;;6.95;4.32;;;;;;;-0.73;100.00;96084.97;4972265;28;20066;-47
2021/01/26 04:08:40;;;;;;;10.07;5.90;;;;;;;-0.76;100.00;96089.50;4990720;28;20046;-50
2021/01/26 04:11:12;;;;;;;8.75;5.18;;;;;;;-0.77;100.00;96096.44;4977366;28;20047;-47
2021/01/26 04:13:46;;;;;;;12.77;8.52;;;;;;;-0.94;100.00;96100.84;4986639;28;20066;-49
2021/01/26 04:16:16;;;;;;;9.23;5.85;;;;;;;-1.11;99.18;96096.59;4976069;28;20050;-46
2021/01/26 04:18:43;;;;;;;6.43;3.45;;;;;;;-1.31;98.65;96102.81;4988043;28;20070;-48
2021/01/26 04:21:10;;;;;;;10.63;6.03;;;;;;;-1.54;97.44;96106.63;4986762;28;20041;-47
2021/01/26 04:23:38;;;;;;;8.75;4.63;;;;;;;-1.72;96.00;96111.84;4986849;28;20621;-50
2021/01/26 04:26:07;;;;;;;9.60;5.22;;;;;;;-1.61;93.69;96113.03;4985103;28;20412;-47
2021/01/26 04:28:37;;;;;;;8.57;4.88;;;;;;;-1.70;91.81;96117.75;4980187;28;20050;-47
2021/01/26 04:31:05;;;;;;;13.10;5.13;;;;;;;-1.94;92.28;96119.81;4986116;28;20050;-47
2021/01/26 04:33:38;;;;;;;8.35;5.43;;;;;;;-1.80;91.49;96120.88;4987877;28;20671;-47
2021/01/26 04:36:09;;;;;;;7.22;3.45;;;;;;;-1.67;90.79;96115.00;4985860;28;20034;-49
2021/01/26 04:38:36;;;;;;;8.52;5.38;;;;;;;-1.67;90.96;96122.75;4981005;28;20105;-48
2021/01/26 04:41:07;;;;;;;9.40;4.90;;;;;;;-1.65;91.59;96121.84;4987864;28;20054;-46
2021/01/26 04:43:39;;;;;;;10.07;5.93;;;;;;;-1.66;92.54;96121.00;4985616;28;20043;-47
2021/01/26 04:46:11;;;;;;;9.02;5.97;;;;;;;-1.70;93.21;96117.75;4983909;28;20555;-46
2021/01/26 04:48:42;;;;;;;10.07;6.03;;;;;;;-1.61;94.65;96120.78;4979680;28;20042;-48
2021/01/26 04:51:14;;;;;;;11.40;6.68;;;;;;;-1.64;94.62;96121.78;4973193;28;20094;-49
2021/01/26 04:53:50;;;;;;;16.52;10.27;;;;;;;-1.61;95.02;96123.38;4985059;28;20042;-50
2021/01/26 04:56:20;;;;;;;10.73;6.97;;;;;;;-1.64;96.15;96116.63;4984965;28;20042;-47
2021/01/26 04:59:06;;;;;;;13.25;8.38;;;;;;;-1.59;96.61;96113.78;4984382;28;20050;-47
2021/01/26 05:01:43;;;;;;;15.98;8.77;;;;;;;-1.60;98.50;96117.28;4980482;28;20432;-48
2021/01/26 05:04:13;;;;;;;19.50;12.25;;;;;;;-1.45;99.93;96104.38;4978353;28;20688;-47
2021/01/26 05:06:51;;;;;;;16.42;11.35;;;;;;;-1.57;99.85;96112.78;4987214;28;20121;-50
2021/01/26 05:09:21;;;;;;;18.70;10.82;;;;;;;-1.54;100.00;96112.63;4975339;28;20070;-48
2021/01/26 05:11:48;;;;;;;18.38;10.38;;;;;;;-1.59;100.00;96122.38;4984656;28;20057;-47
2021/01/26 05:14:19;;;;;;;17.50;11.30;;;;;;;-1.58;100.00;96121.47;4984306;28;20136;-48
2021/01/26 05:16:52;;;;;;;17.83;12.02;;;;;;;-1.60;100.00;96125.88;4972773;28;20055;-49
2021/01/26 05:19:23;;;;;;;17.13;8.15;;;;;;;-1.57;100.00;96122.31;4983987;28;20052;-51
2021/01/26 05:21:57;;;;;;;16.60;10.90;;;;;;;-1.53;100.00;96127.22;4983204;28;20121;-46
2021/01/26 05:24:32;;;;;;;18.42;10.23;;;;;;;-1.56;100.00;96131.72;4979653;28;20108;-46
2021/01/26 05:27:00;;;;;;;22.08;12.48;;;;;;;-1.46;100.00;96122.56;4980407;28;20053;-48
2021/01/26 05:29:28;;;;;;;16.02;9.65;;;;;;;-1.45;100.00;96126.81;4980803;28;20047;-48
2021/01/26 05:31:59;;;;;;;16.10;9.48;;;;;;;-1.42;100.00;96126.66;4973952;28;20121;-46
2021/01/26 05:34:28;;;;;;;15.88;8.43;;;;;;;-1.38;100.00;96133.34;4980559;28;20043;-46
2021/01/26 05:36:56;;;;;;;22.85;11.55;;;;;;;-1.38;100.00;96138.50;4983737;28;20137;-47
2021/01/26 05:39:30;;;;;;;14.82;8.20;;;;;;;-1.32;100.00;96133.03;4980629;28;20050;-48
2021/01/26 05:41:58;;;;;;;14.10;8.18;;;;;;;-1.36;100.00;96135.88;4976946;28;20054;-47
2021/01/26 05:44:26;;;;;;;14.45;9.32;;;;;;;-1.36;100.00;96139.28;4983251;28;20054;-47
2021/01/26 05:46:54;;;;;;;12.45;5.70;;;;;;;-1.34;100.00;96150.41;4974189;28;20534;-46
2021/01/26 05:49:37;;;;;;;16.27;7.85;;;;;;;-1.34;100.00;96146.94;4982745;28;20109;-46
2021/01/26 05:52:07;;;;;;;17.25;9.52;;;;;;;-1.29;100.00;96148.38;4978717;28;20054;-47
2021/01/26 05:54:36;;;;;;;17.30;9.18;;;;;;;-1.26;100.00;96143.06;4986148;28;20497;-46
2021/01/26 05:57:04;;;;;;;12.53;6.30;;;;;;;-1.29;100.00;96145.81;4983727;28;20059;-46
2021/01/26 05:59:34;;;;;;;17.33;10.18;;;;;;;-1.29;100.00;96153.56;4979863;28;20305;-45
2021/01/26 06:02:14;;;;;;;13.97;7.77;;;;;;;-1.26;100.00;96152.56;4982623;28;20046;-47
2021/01/26 06:04:42;;;;;;;13.27;7.75;;;;;;;-1.25;100.00;96157.66;4984909;28;20629;-46
2021/01/26 06:07:19;;;;;;;10.13;5.38;;;;;;;-1.27;100.00;96156.09;4976673;28;20126;-45
2021/01/26 06:09:47;;;;;;;15.38;6.25;;;;;;;-1.28;100.00;96163.00;4983987;28;20167;-46
2021/01/26 06:12:17;;;;;;;13.15;7.22;;;;;;;-1.28;100.00;96165.56;4974162;28;20047;-47
2021/01/26 06:14:46;;;;;;;9.13;4.38;;;;;;;-1.29;100.00;96168.25;4978736;28;20046;-48
2021/01/26 06:17:19;;;;;;;13.63;8.35;;;;;;;-1.26;100.00;96162.91;4982360;28;20045;-46
2021/01/26 06:20:02;;;;;;;13.43;8.48;;;;;;;-1.31;100.00;96163.16;4973400;28;20282;-46
2021/01/26 06:22:30;;;;;;;16.17;8.98;;;;;;;-1.35;100.00;96169.41;4979798;28;20047;-49
2021/01/26 06:24:57;;;;;;;11.57;6.70;;;;;;;-1.31;100.00;96167.47;4975028;28;20189;-48
2021/01/26 06:27:34;;;;;;;16.95;9.27;;;;;;;-1.33;100.00;96166.75;4965405;28;20417;-48
2021/01/26 06:30:13;;;;;;;13.60;7.50;;;;;;;-1.35;100.00;96165.97;4986799;28;20096;-49
2021/01/26 06:32:58;;;;;;;12.60;6.90;;;;;;;-1.35;100.00;96169.41;4977522;28;20061;-47
2021/01/26 06:35:32;;;;;;;8.07;4.30;;;;;;;-1.28;99.72;96157.81;4973771;28;20070;-47
2021/01/26 06:38:13;;;;;;;14.18;7.30;;;;;;;-1.25;99.70;96157.66;4981479;28;20042;-52
2021/01/26 06:41:08;;;;;;;12.25;7.25;;;;;;;-1.18;98.42;96165.94;4978347;28;20085;-49
2021/01/26 06:43:47;;;;;;;13.70;6.40;;;;;;;-1.20;98.51;96178.13;4966778;28;20109;-49
2021/01/26 06:46:24;;;;;;;9.02;5.25;;;;;;;-1.18;98.33;96163.34;4962248;28;20560;-46
2021/01/26 06:49:02;;;;;;;11.80;7.03;;;;;;;-1.12;96.71;96164.78;4978648;28;20038;-47
2021/01/26 06:51:54;;;;;;;11.93;6.72;;;;;;;-1.13;97.24;96168.31;4984320;28;20046;-47
2021/01/26 06:54:37;;;;;;;9.95;6.05;;;;;;;-1.11;96.64;96172.44;4949945;28;20055;-47
2021/01/26 06:57:27;;;;;;;10.95;6.82;;;;;;;-1.11;95.72;96175.03;4972554;28;20049;-47
2021/01/26 07:00:17;;;;;;;10.05;5.65;;;;;;;-1.05;96.42;96190.25;4969939;28;20522;-46
2021/01/26 07:03:22;;;;;;;8.55;4.53;;;;;;;-1.16;98.43;96182.22;4977828;28;20038;-51
2021/01/26 07:06:06;;;;;;;15.45;7.32;;;;;;;-1.50;100.00;96183.13;4970235;28;20058;-46
2021/01/26 07:08:58;;;;;;;9.68;4.72;;;;;;;-1.60;100.00;96181.91;4965951;28;20055;-50
2021/01/26 07:11:51;;;;;;;11.10;6.88;;;;;;;-1.59;100.00;96162.91;4971523;28;20066;-46
2021/01/26 07:14:28;;;;;;;12.98;7.32;;;;;;;-1.52;100.00;96166.84;4981133;28;20050;-47
2021/01/26 07:16:57;;;;;;;14.60;8.20;;;;;;;-1.42;100.00;96164.63;4977438;28;20715;-48
2021/01/26 07:19:37;;;;;;;14.70;9.68;;;;;;;-1.42;100.00;96162.03;4976576;28;20054;-46
2021/01/26 07:22:52;;;;;;;11.35;6.60;;;;;;;-1.37;100.00;96157.47;4976165;28;20069;-47
2021/01/26 07:25:24;;;;;;;12.40;7.93;;;;;;;-1.31;100.00;96150.25;4961060;28;20051;-47
2021/01/26 07:28:07;;;;;;;9.50;5.63;;;;;;;-1.24;100.00;96156.75;4982391;28;20125;-46
2021/01/26 07:30:36;;;;;;;8.50;5.07;;;;;;;-1.20;100.00;96162.63;4976870;28;20050;-44
2021/01/26 07:33:06;;;;;;;6.30;3.92;;;;;;;-1.17;100.00;96165.03;4981659;28;20042;-48
2021/01/26 07:35:38;;;;;;;10.13;5.77;;;;;;;-1.12;100.00;96159.63;4986244;28;20070;-46
2021/01/26 07:38:11;;;;;;;8.73;4.68;;;;;;;-1.12;100.00;96149.25;4988224;28;20046;-48
2021/01/26 07:40:46;;;;;;;8.93;4.53;;;;;;;-1.06;100.00;96167.06;4982640;28;20522;-47
2021/01/26 07:43:19;;;;;;;6.57;4.10;;;;;;;-1.07;98.61;96167.94;4980500;28;20121;-45
2021/01/26 07:45:51;;;;;;;6.43;3.83;;;;;;;-1.05;97.31;96159.19;4981299;28;20038;-45
2021/01/26 07:48:25;;;;;;;6.65;4.13;;;;;;;-1.01;94.92;96145.19;4984682;28;20070;-46
2021/01/26 07:50:53;;;;;;;7.72;3.92;;;;;;;-1.03;96.30;96177.25;4974549;28;20132;-45
2021/01/26 07:53:25;;;;;;;8.02;4.70;;;;;;;-1.05;98.79;96174.72;4986986;28;20049;-45
2021/01/26 07:55:59;;;;;;;7.40;3.95;;;;;;;-1.08;99.42;96163.69;4985081;28;20109;-47
2021/01/26 07:58:27;;;;;;;6.10;3.30;;;;;;;-1.10;100.00;96158.63;4977519;28;20047;-46
2021/01/26 08:00:57;;;;;;;6.90;3.97;;;;;;;-1.26;100.00;96176.69;4985967;28;20125;-45
2021/01/26 08:03:29;;;;;;;8.35;4.32;;;;;;;-1.20;100.00;96189.31;4977188;28;20045;-45
2021/01/26 08:05:59;;;;;;;6.10;3.67;;;;;;;-1.36;100.00;96190.19;4980263;28;20057;-47
2021/01/26 08:08:28;;;;;;;7.55;3.75;;;;;;;-1.34;100.00;96181.44;4983166;28;20128;-46
2021/01/26 08:11:08;;;;;;;6.00;3.95;;;;;;;-1.17;100.00;96195.22;4945163;28;20589;-46
2021/01/26 08:13:36;;;;;;;7.28;3.83;;;;;;;-1.26;100.00;96199.97;4975283;28;20046;-45
2021/01/26 08:16:12;;;;;;;6.43;3.72;;;;;;;-1.12;100.00;96201.00;4984827;28;20047;-48
2021/01/26 08:18:41;;;;;;;5.25;3.40;;;;;;;-1.24;100.00;96185.22;4977515;28;20039;-45
2021/01/26 08:21:33;;;;;;;6.50;3.40;;;;;;;-1.20;100.00;96197.06;4980623;28;20042;-45
2021/01/26 08:24:28;;;;;;;12.55;4.75;;;;;;;-1.00;100.00;96192.59;4978048;28;20046;-46
2021/01/26 08:27:25;;;;;;;6.85;3.80;;;;;;;-1.07;100.00;96199.00;4979557;28;20051;-47
2021/01/26 08:29:54;;;;;;;5.38;3.53;;;;;;;-0.99;100.00;96189.94;4983743;28;20046;-45
2021/01/26 08:32:44;;;;;;;6.57;3.72;;;;;;;-0.99;100.00;96196.88;4985931;28;20038;-45
2021/01/26 08:35:13;;;;;;;5.77;3.80;;;;;;;-0.94;100.00;96199.19;4981354;28;20535;-45
2021/01/26 08:37:46;;;;;;;7.78;3.70;;;;;;;-1.02;100.00;96192.69;4982302;28;20787;-45
2021/01/26 08:40:19;;;;;;;7.43;4.22;;;;;;;-1.16;100.00;96200.34;4984757;28;20046;-45
2021/01/26 08:42:57;;;;;;;7.50;4.63;;;;;;;-1.18;100.00;96193.56;4979594;28;20062;-47
2021/01/26 08:45:53;;;;;;;6.47;3.58;;;;;;;-1.08;100.00;96185.22;4981383;28;20050;-46
2021/01/26 08:48:30;;;;;;;10.02;3.15;;;;;;;-1.09;100.00;96193.09;4977426;28;20043;-48
2021/01/26 08:51:25;;;;;;;5.10;2.88;;;;;;;-1.11;100.00;96187.16;4982689;28;20039;-48
2021/01/26 08:53:52;;;;;;;7.00;3.53;;;;;;;-0.95;100.00;96195.78;4976692;28;20061;-45
2021/01/26 08:56:37;;;;;;;5.35;3.45;;;;;;;-0.97;100.00;96190.66;4978350;28;20058;-45
2021/01/26 08:59:09;;;;;;;5.00;3.15;;;;;;;-0.85;100.00;96199.56;4978773;28;20067;-49
2021/01/26 09:01:42;;;;;;;5.80;3.28;;;;;;;-0.85;100.00;96196.97;4982166;28;20054;-47
2021/01/26 09:04:43;;;;;;;7.88;2.42;;;;;;;-0.99;100.00;96176.16;4969014;28;20046;-48
2021/01/26 09:07:11;;;;;;;;;;;;;;;-0.84;100.00;96200.38;4969104;28;20047;-47
2021/01/26 09:09:48;;;;;;;6.47;3.30;;;;;;;-0.91;100.00;96201.63;4971050;28;19922;-48
2021/01/26 09:12:22;;;;;;;11.07;4.03;;;;;;;-0.83;100.00;96194.28;4975896;28;20051;-47
2021/01/26 09:14:53;;;;;;;4.13;2.63;;;;;;;-0.66;100.00;96204.56;4984645;28;20082;-49
2021/01/26 09:17:24;;;;;;;5.28;3.13;;;;;;;-0.49;100.00;96201.06;4980777;28;20629;-47
2021/01/26 09:19:54;;;;;;;4.18;2.85;;;;;;;-0.46;100.00;96208.69;4980255;28;20045;-47
2021/01/26 09:22:22;;;;;;;7.15;2.97;;;;;;;-0.34;98.42;96205.44;4977896;28;20079;-47
2021/01/26 09:24:56;;;;;;;3.67;2.72;;;;;;;-0.16;95.12;96187.19;4980231;28;20039;-45
2021/01/26 09:27:26;;;;;;;3.78;2.50;;;;;;;-0.12;94.64;96214.59;4981664;28;20133;-54
2021/01/26 09:30:21;;;;;;;6.03;2.70;;;;;;;-0.19;94.83;96218.47;4980041;28;20046;-45
2021/01/26 09:33:21;;;;;;;6.75;3.53;;;;;;;-0.26;95.09;96221.38;4997742;23;21143;-45
2021/01/26 09:35:50;;;;;;;7.70;4.95;;;;;;;-0.09;96.13;96228.22;4991894;28;20421;-48
2021/01/26 09:38:20;;;;;;;6.07;3.15;;;;;;;-0.08;94.71;96219.53;5002559;28;20041;-42
2021/01/26 09:40:54;;;;;;;4.68;2.17;;;;;;;0.15;91.53;96248.50;5001397;28;20069;-45
2021/01/26 09:43:23;;;;;;;6.60;3.42;;;;;;;0.36;91.70;96251.66;5000868;28;20081;-49
2021/01/26 09:45:57;;;;;;;5.35;3.40;;;;;;;0.07;91.30;96230.81;4995336;28;20901;-45
2021/01/26 09:48:29;;;;;;;6.03;4.03;;;;;;;0.19;90.76;96255.19;5002062;28;20471;-48
2021/01/26 09:51:17;;;;;;;6.15;3.42;;;;;;;0.11;91.43;96242.66;4986708;28;20582;-46
2021/01/26 09:53:45;;;;;;;5.53;3.35;;;;;;;0.32;90.78;96240.63;5003575;28;20413;-46
2021/01/26 09:56:16;;;;;;;5.97;3.73;;;;;;;0.24;90.54;96235.00;5001476;28;20635;-47
2021/01/26 09:58:45;;;;;;;5.55;3.78;;;;;;;0.13;92.69;96253.78;4990940;28;20443;-43
2021/01/26 10:01:15;;;;;;;7.40;4.90;;;;;;;0.28;90.98;96259.03;4996557;28;20506;-44
2021/01/26 10:03:42;;;;;;;5.00;3.30;;;;;;;0.12;91.99;96240.91;4998262;28;20421;-45
2021/01/26 10:06:11;;;;;;;7.30;4.20;;;;;;;0.44;89.54;96239.91;4993922;28;20422;-46
2021/01/26 10:08:38;;;;;;;6.70;4.18;;;;;;;0.76;87.35;96249.34;4996356;28;20507;-48
2021/01/26 10:11:12;;;;;;;5.93;3.90;;;;;;;0.71;86.08;96252.22;4990855;28;20422;-43
2021/01/26 10:13:40;;;;;;;6.30;3.95;;;;;;;0.91;84.85;96248.44;4994690;28;20436;-46
2021/01/26 10:16:30;;;;;;;11.65;4.55;;;;;;;0.77;85.58;96246.66;4999738;28;20424;-46
2021/01/26 10:18:58;;;;;;;7.65;4.53;;;;;;;0.87;85.13;96255.59;4998526;28;20420;-47
2021/01/26 10:21:30;;;;;;;6.20;3.85;;;;;;;0.56;85.95;96266.06;5000086;28;20415;-44
2021/01/26 10:24:03;;;;;;;7.07;4.45;;;;;;;0.42;86.43;96266.88;4989554;28;20489;-45
2021/01/26 10:26:33;;;;;;;8.15;5.18;;;;;;;0.61;86.61;96269.22;4996420;28;20414;-45
2021/01/26 10:29:17;;;;;;;6.93;4.25;;;;;;;0.60;86.24;96271.00;4989123;28;20419;-45
2021/01/26 10:31:47;;;;;;;6.78;4.32;;;;;;;0.54;84.75;96275.69;4993829;28;20449;-46
2021/01/26 10:34:41;;;;;;;7.43;5.07;;;;;;;0.79;83.30;96278.56;4991149;28;20416;-45
2021/01/26 10:37:11;;;;;;;9.27;5.60;;;;;;;1.06;83.67;96281.28;5003158;28;20405;-48
2021/01/26 10:39:40;;;;;;;7.43;4.57;;;;;;;0.68;83.87;96273.97;4994120;28;20475;-47
2021/01/26 10:42:15;;;;;;;7.85;5.07;;;;;;;0.81;84.98;96283.66;4999528;28;20478;-46
2021/01/26 10:44:46;;;;;;;7.68;4.80;;;;;;;1.22;83.19;96285.56;4988231;28;20428;-47
2021/01/26 10:47:22;;;;;;;7.68;4.43;;;;;;;1.25;80.87;96264.63;4988579;28;20442;-45
2021/01/26 10:49:54;;;;;;;7.13;4.20;;;;;;;1.26;81.34;96274.06;4989867;28;20497;-46
2021/01/26 10:52:37;;;;;;;6.05;3.72;;;;;;;1.18;82.09;96285.75;5004076;28;20050;-41
2021/01/26 10:55:05;;;;;;;7.25;3.28;;;;;;;0.80;83.13;96282.81;4994314;28;20120;-47
2021/01/26 10:57:33;;;;;;;;;;;;;;;0.78;83.97;96283.81;5003085;28;20053;-44
2021/01/26 11:00:00;;;;;;;;;;;;;;;0.70;83.26;96294.66;4990287;28;19922;-43
2021/01/26 11:02:28;;;;;;;;;;;;;;;0.75;83.97;96276.22;4999676;28;19921;-47
2021/01/26 11:04:55;;;;;;;;;;;;;;;0.85;84.34;96264.38;4989219;28;20003;-40
2021/01/26 11:07:22;;;;;;;;;;;;;;;0.98;82.97;96272.28;5005975;28;19927;-47
2021/01/26 11:09:49;;;;;;;;;;;;;;;1.09;82.99;96273.31;4995612;28;19926;-42
2021/01/26 11:12:18;;;;;;;;;;;;;;;0.69;83.72;96267.88;5007769;28;19921;-41
2021/01/26 11:14:45;;;;;;;;;;;;;;;0.62;85.32;96257.91;5004407;28;19922;-46
2021/01/26 11:17:12;;;;;;;;;;;;;;;0.68;85.90;96279.16;4997083;28;19961;-45
2021/01/26 11:19:40;;;;;;;;;;;;;;;0.62;86.17;96276.94;5001717;28;19936;-48
2021/01/26 11:22:07;;;;;;;;;;;;;;;0.53;86.81;96267.09;4996433;28;20024;-41
2021/01/26 11:24:34;;;;;;;;;;;;;;;0.61;86.89;96280.44;4998932;28;20017;-42
2021/01/26 11:27:00;;;;;;;;;;;;;;;0.57;88.66;96281.53;5003131;28;19929;-44
2021/01/26 11:29:27;;;;;;;;;;;;;;;0.46;90.52;96253.63;5001865;28;20304;-45
2021/01/26 11:31:53;;;;;;;;;;;;;;;0.53;87.94;96246.31;5001726;28;20053;-42
2021/01/26 11:34:20;;;;;;;;;;;;;;;0.49;87.01;96265.59;5007314;28;19926;-43
2021/01/26 11:36:48;;;;;;;;;;;;;;;0.58;87.39;96257.25;5003232;28;19925;-45
2021/01/26 11:39:16;;;;;;;;;;;;;;;0.55;87.92;96275.63;5001244;28;19929;-42
2021/01/26 11:41:42;;;;;;;;;;;;;;;0.78;86.71;96274.28;4993148;28;19955;-42
2021/01/26 11:44:09;;;;;;;;;;;;;;;0.59;86.64;96263.31;4997631;28;19932;-43
2021/01/26 11:46:36;;;;;;;;;;;;;;;0.61;87.03;96274.41;4995459;28;19928;-42
2021/01/26 11:49:03;;;;;;;;;;;;;;;0.51;86.82;96268.91;5002564;28;19944;-41
2021/01/26 11:51:30;;;;;;;;;;;;;;;0.50;87.96;96261.25;4996763;28;20363;-41
2021/01/26 11:53:58;;;;;;;;;;;;;;;0.66;87.99;96283.63;5002536;28;19925;-41
2021/01/26 11:56:25;;;;;;;;;;;;;;;0.68;86.79;96276.56;5001475;28;20375;-41